createdAt,value
2022-08-17T00:00:42.631Z,18.70
2022-08-17T00:03:21.112Z,18.80
2022-08-17T00:06:01.242Z,18.80
2022-08-17T00:08:35.442Z,18.80
2022-08-17T00:11:10.962Z,18.80
2022-08-17T00:13:44.052Z,18.80
2022-08-17T00:16:16.203Z,18.80
2022-08-17T00:19:01.552Z,18.80
2022-08-17T00:22:29.989Z,18.90
2022-08-17T00:24:24.495Z,18.90
2022-08-17T00:29:20.368Z,18.90
2022-08-17T00:31:49.779Z,18.90
2022-08-17T00:34:18.561Z,18.90
2022-08-17T00:41:42.850Z,18.90
2022-08-17T00:44:12.144Z,19.00
2022-08-17T00:46:43.191Z,19.00
2022-08-17T00:49:12.923Z,19.00
2022-08-17T00:51:59.515Z,19.00
2022-08-17T00:54:33.939Z,19.00
2022-08-17T00:57:24.858Z,19.00
2022-08-17T01:00:03.762Z,19.10
2022-08-17T01:02:42.711Z,19.00
2022-08-17T01:05:18.582Z,19.00
2022-08-17T01:07:51.269Z,18.90
2022-08-17T01:10:58.995Z,19.00
2022-08-17T01:13:13.819Z,18.90
2022-08-17T01:16:03.155Z,18.90
2022-08-17T01:18:32.248Z,18.90
2022-08-17T01:21:09.586Z,18.80
2022-08-17T01:23:38.089Z,18.80
2022-08-17T01:28:54.309Z,18.70
2022-08-17T01:31:28.056Z,18.70
2022-08-17T01:33:58.686Z,18.60
2022-08-17T01:38:56.849Z,18.50
2022-08-17T01:44:00.495Z,18.30
2022-08-17T01:46:34.861Z,18.30
2022-08-17T01:49:08.814Z,18.30
2022-08-17T01:51:37.673Z,18.20
2022-08-17T01:54:10.619Z,18.20
2022-08-17T01:56:42.689Z,18.10
2022-08-17T01:59:11.912Z,18.10
2022-08-17T02:01:40.352Z,18.10
2022-08-17T02:04:08.670Z,18.00
2022-08-17T02:06:47.083Z,18.10
2022-08-17T02:09:26.094Z,18.00
2022-08-17T02:12:00.022Z,18.00
2022-08-17T02:14:47.715Z,17.90
2022-08-17T02:17:15.223Z,17.40
2022-08-17T02:19:43.440Z,16.40
2022-08-17T02:22:12.113Z,17.90
2022-08-17T02:25:00.454Z,17.80
2022-08-17T02:27:27.578Z,17.80
2022-08-17T02:29:55.684Z,17.80
2022-08-17T02:32:28.459Z,17.70
2022-08-17T02:34:58.272Z,17.90
2022-08-17T02:37:28.308Z,17.90
2022-08-17T02:40:00.673Z,17.90
2022-08-17T02:42:38.465Z,18.00
2022-08-17T02:45:11.405Z,17.90
2022-08-17T02:47:41.386Z,17.90
2022-08-17T02:50:12.016Z,18.00
2022-08-17T02:52:43.997Z,18.00
2022-08-17T02:55:19.398Z,17.90
2022-08-17T02:57:47.944Z,18.00
2022-08-17T03:00:22.233Z,18.00
2022-08-17T03:02:51.501Z,18.00
2022-08-17T03:05:22.319Z,17.90
2022-08-17T03:07:51.444Z,17.90
2022-08-17T03:10:21.662Z,17.90
2022-08-17T03:12:53.621Z,17.80
2022-08-17T03:15:33.512Z,17.80
2022-08-17T03:18:03.675Z,17.80
2022-08-17T03:20:33.688Z,17.70
2022-08-17T03:23:02.948Z,17.70
2022-08-17T03:25:39.256Z,17.70
2022-08-17T03:28:07.940Z,17.60
2022-08-17T03:30:36.543Z,17.60
2022-08-17T03:33:07.500Z,17.60
2022-08-17T03:35:37.709Z,17.50
2022-08-17T03:38:06.463Z,17.60
2022-08-17T03:43:23.510Z,17.50
2022-08-17T03:46:26.970Z,17.50
2022-08-17T03:49:15.716Z,17.50
2022-08-17T03:52:02.384Z,17.50
2022-08-17T03:54:48.694Z,17.40
2022-08-17T03:59:45.721Z,17.40
2022-08-17T04:02:28.590Z,17.40
2022-08-17T04:04:57.531Z,17.40
2022-08-17T04:07:29.116Z,17.40
2022-08-17T04:09:58.477Z,17.30
2022-08-17T04:12:31.434Z,17.30
2022-08-17T04:15:00.200Z,17.30
2022-08-17T04:17:29.362Z,17.30
2022-08-17T04:19:57.128Z,17.20
2022-08-17T04:22:30.712Z,17.30
2022-08-17T04:25:05.626Z,17.20
2022-08-17T04:27:34.031Z,17.20
2022-08-17T04:30:02.319Z,17.20
2022-08-17T04:33:03.493Z,17.20
2022-08-17T04:35:20.896Z,17.10
2022-08-17T04:37:49.162Z,17.10
2022-08-17T04:40:36.356Z,17.10
2022-08-17T04:43:07.982Z,17.10
2022-08-17T04:45:55.238Z,17.10
2022-08-17T04:48:36.605Z,17.00
2022-08-17T04:51:13.476Z,17.00
2022-08-17T04:53:44.738Z,17.00
2022-08-17T04:56:18.883Z,17.00
2022-08-17T04:58:50.540Z,17.00
2022-08-17T05:01:23.312Z,16.90
2022-08-17T05:04:02.385Z,16.90
2022-08-17T05:06:50.787Z,16.90
2022-08-17T05:09:18.849Z,16.90
2022-08-17T05:11:47.405Z,16.90
2022-08-17T05:14:15.602Z,16.90
2022-08-17T05:19:14.140Z,16.90
2022-08-17T05:21:41.857Z,16.90
2022-08-17T05:24:35.369Z,16.90
2022-08-17T05:27:01.397Z,16.90
2022-08-17T05:29:34.464Z,16.90
2022-08-17T05:32:39.439Z,17.00
2022-08-17T05:37:29.542Z,17.00
2022-08-17T05:39:57.979Z,17.10
2022-08-17T05:42:25.912Z,17.10
2022-08-17T05:44:57.926Z,17.20
2022-08-17T05:47:26.905Z,17.30
2022-08-17T05:49:55.975Z,17.30
2022-08-17T05:52:40.284Z,17.30
2022-08-17T05:55:11.186Z,17.40
2022-08-17T05:57:42.375Z,17.40
2022-08-17T06:00:21.269Z,17.50
2022-08-17T06:03:11.943Z,17.60
2022-08-17T06:06:31.417Z,17.70
2022-08-17T06:09:25.801Z,17.80
2022-08-17T06:11:58.913Z,17.80
2022-08-17T06:14:41.054Z,17.90
2022-08-17T06:17:14.283Z,18.00
2022-08-17T06:19:55.086Z,18.00
2022-08-17T06:22:28.180Z,18.10
2022-08-17T06:25:10.231Z,18.20
2022-08-17T06:27:49.081Z,18.20
2022-08-17T06:30:35.739Z,18.30
2022-08-17T06:33:23.914Z,18.30
2022-08-17T06:36:02.973Z,18.50
2022-08-17T06:39:19.946Z,18.60
2022-08-17T06:43:02.136Z,18.70
2022-08-17T06:45:08.468Z,18.80
2022-08-17T06:48:07.229Z,18.90
2022-08-17T06:50:40.743Z,18.80
2022-08-17T06:53:35.588Z,18.90
2022-08-17T06:56:12.208Z,18.90
2022-08-17T06:58:44.076Z,19.00
2022-08-17T07:01:19.720Z,19.10
2022-08-17T07:04:12.971Z,19.00
2022-08-17T07:06:47.387Z,19.00
2022-08-17T07:09:31.550Z,19.00
2022-08-17T07:12:09.995Z,19.00
2022-08-17T07:14:53.492Z,19.20
2022-08-17T07:17:46.823Z,19.30
2022-08-17T07:28:01.112Z,19.80
2022-08-17T07:30:50.502Z,20.10
2022-08-17T07:33:24.628Z,20.50
2022-08-17T07:38:26.739Z,20.60
2022-08-17T07:43:39.881Z,20.90
2022-08-17T07:47:00.634Z,20.80
2022-08-17T07:49:31.806Z,20.80
2022-08-17T07:52:47.738Z,20.70
2022-08-17T07:57:35.806Z,20.50
2022-08-17T08:00:17.030Z,20.50
2022-08-17T08:02:58.624Z,20.50
2022-08-17T08:05:49.400Z,20.50
2022-08-17T08:08:44.040Z,20.50
2022-08-17T08:11:15.816Z,20.50
2022-08-17T08:13:45.752Z,20.50
2022-08-17T08:16:21.638Z,20.40
2022-08-17T08:18:55.954Z,20.30
2022-08-17T08:21:47.247Z,20.20
2022-08-17T08:24:30.735Z,20.10
2022-08-17T08:27:27.216Z,18.70
2022-08-17T08:30:12.462Z,20.00
2022-08-17T08:32:48.087Z,20.00
2022-08-17T08:35:33.200Z,20.00
2022-08-17T08:41:11.157Z,20.00
2022-08-17T08:43:53.462Z,20.10
2022-08-17T08:46:40.827Z,20.20
2022-08-17T08:49:17.730Z,20.30
2022-08-17T08:51:59.457Z,20.60
2022-08-17T08:55:03.358Z,20.60
2022-08-17T08:57:43.268Z,21.10
2022-08-17T09:00:17.594Z,21.10
2022-08-17T09:03:17.896Z,21.40
2022-08-17T09:06:37.744Z,21.50
2022-08-17T09:09:20.595Z,22.00
2022-08-17T09:12:11.070Z,22.00
2022-08-17T09:14:51.954Z,22.30
2022-08-17T09:17:30.086Z,22.50
2022-08-17T09:20:03.302Z,22.60
2022-08-17T09:22:37.203Z,22.40
2022-08-17T09:25:22.115Z,22.30
2022-08-17T09:28:00.666Z,22.30
2022-08-17T09:30:53.338Z,22.20
2022-08-17T09:33:28.049Z,22.20
2022-08-17T09:36:16.564Z,22.40
2022-08-17T09:38:53.402Z,22.40
2022-08-17T09:42:01.580Z,22.60
2022-08-17T09:44:35.001Z,22.60
2022-08-17T09:47:18.695Z,22.60
2022-08-17T09:49:51.187Z,22.50
2022-08-17T09:52:25.497Z,22.60
2022-08-17T09:54:56.044Z,22.70
2022-08-17T09:57:32.307Z,22.80
2022-08-17T10:00:26.356Z,22.90
2022-08-17T10:03:24.175Z,23.00
2022-08-17T10:06:02.785Z,23.10
2022-08-17T10:08:52.773Z,23.00
2022-08-17T10:12:03.044Z,23.00
2022-08-17T10:14:38.109Z,23.00
2022-08-17T10:19:57.516Z,23.90
2022-08-17T10:23:17.743Z,24.10
2022-08-17T10:25:56.115Z,24.30
2022-08-17T10:28:30.408Z,24.30
2022-08-17T10:31:33.276Z,24.40
2022-08-17T10:34:28.586Z,24.30
2022-08-17T10:37:08.507Z,24.20
2022-08-17T10:39:58.032Z,24.00
2022-08-17T10:42:38.356Z,23.70
2022-08-17T10:45:29.581Z,23.60
2022-08-17T10:50:57.699Z,23.60
2022-08-17T10:53:32.197Z,23.60
2022-08-17T10:56:12.314Z,23.60
2022-08-17T10:58:56.413Z,23.80
2022-08-17T11:01:38.214Z,23.60
2022-08-17T11:04:37.368Z,24.70
2022-08-17T11:07:28.192Z,23.70
2022-08-17T11:10:01.794Z,23.90
2022-08-17T11:13:05.727Z,24.10
2022-08-17T11:16:02.354Z,24.30
2022-08-17T11:19:10.863Z,24.30
2022-08-17T11:21:56.338Z,24.30
2022-08-17T11:24:35.543Z,24.20
2022-08-17T11:27:12.557Z,24.20
2022-08-17T11:30:02.856Z,24.00
2022-08-17T11:32:47.344Z,24.00
2022-08-17T11:35:21.744Z,23.90
2022-08-17T11:38:17.375Z,23.90
2022-08-17T11:41:03.285Z,23.80
2022-08-17T11:43:56.619Z,23.70
2022-08-17T11:49:58.747Z,23.70
2022-08-17T11:52:38.348Z,23.60
2022-08-17T11:55:33.872Z,23.60
2022-08-17T11:58:02.669Z,23.70
2022-08-17T12:00:45.647Z,23.70
2022-08-17T12:03:34.728Z,23.70
2022-08-17T12:06:13.519Z,23.80
2022-08-17T12:08:43.730Z,23.80
2022-08-17T12:11:58.767Z,23.90
2022-08-17T12:14:32.244Z,24.00
2022-08-17T12:17:14.274Z,24.00
2022-08-17T12:19:55.061Z,24.10
2022-08-17T12:22:29.364Z,24.00
2022-08-17T12:25:13.795Z,24.10
2022-08-17T12:28:05.036Z,24.10
2022-08-17T12:30:34.926Z,24.10
2022-08-17T12:33:02.977Z,24.10
2022-08-17T12:35:35.429Z,24.00
2022-08-17T12:38:06.523Z,23.90
2022-08-17T12:40:58.151Z,23.90
2022-08-17T12:43:29.326Z,23.80
2022-08-17T12:46:13.278Z,23.80
2022-08-17T12:48:58.808Z,23.80
2022-08-17T12:51:29.210Z,23.80
2022-08-17T12:53:57.527Z,23.80
2022-08-17T12:56:25.572Z,23.80
2022-08-17T12:58:54.583Z,23.70
2022-08-17T13:03:58.053Z,23.60
2022-08-17T13:06:35.496Z,23.60
2022-08-17T13:09:13.812Z,23.50
2022-08-17T13:11:56.678Z,23.50
2022-08-17T13:14:25.532Z,23.40
2022-08-17T13:17:00.530Z,23.40
2022-08-17T13:19:40.752Z,23.30
2022-08-17T13:22:15.638Z,23.30
2022-08-17T13:24:54.591Z,23.30
2022-08-17T13:27:26.551Z,23.30
2022-08-17T13:30:06.025Z,23.30
2022-08-17T13:32:43.018Z,23.30
2022-08-17T13:35:39.961Z,23.40
2022-08-17T13:38:35.702Z,23.40
2022-08-17T13:41:08.107Z,23.40
2022-08-17T13:43:53.751Z,23.50
2022-08-17T13:46:29.922Z,23.50
2022-08-17T13:49:06.937Z,23.60
2022-08-17T13:51:42.428Z,23.60
2022-08-17T13:54:37.359Z,23.60
2022-08-17T13:59:53.762Z,23.60
2022-08-17T14:02:28.298Z,23.60
2022-08-17T14:04:57.085Z,23.70
2022-08-17T14:07:38.616Z,23.80
2022-08-17T14:10:17.543Z,23.80
2022-08-17T14:12:46.290Z,23.80
2022-08-17T14:15:23.217Z,23.80
2022-08-17T14:17:52.877Z,23.80
2022-08-17T14:20:22.396Z,23.80
2022-08-17T14:22:53.441Z,23.80
2022-08-17T14:25:25.831Z,23.70
2022-08-17T14:30:25.133Z,23.80
2022-08-17T14:32:54.278Z,23.80
2022-08-17T14:35:24.009Z,23.80
2022-08-17T14:37:53.224Z,23.80
2022-08-17T14:40:25.221Z,23.70
2022-08-17T14:45:30.132Z,23.50
2022-08-17T14:48:04.514Z,23.40
2022-08-17T14:50:35.457Z,23.50
2022-08-17T14:53:08.373Z,23.50
2022-08-17T14:55:39.858Z,23.50
2022-08-17T14:58:09.352Z,23.50
2022-08-17T15:00:38.676Z,23.50
2022-08-17T15:05:39.844Z,23.30
2022-08-17T15:08:07.830Z,23.30
2022-08-17T15:20:31.921Z,23.20
2022-08-17T15:23:00.469Z,23.20
2022-08-17T15:25:32.715Z,23.20
2022-08-17T15:28:01.762Z,23.20
2022-08-17T15:30:30.669Z,23.20
2022-08-17T15:33:00.593Z,23.20
2022-08-17T15:35:32.555Z,23.20
2022-08-17T15:38:10.667Z,23.20
2022-08-17T15:40:43.574Z,23.20
2022-08-17T15:43:23.325Z,23.10
2022-08-17T15:46:11.144Z,23.00
2022-08-17T15:51:31.027Z,23.00
2022-08-17T15:54:19.325Z,22.90
2022-08-17T15:56:51.444Z,22.90
2022-08-17T15:59:19.797Z,22.90
2022-08-17T16:03:01.456Z,22.90
2022-08-17T16:04:36.417Z,22.90
2022-08-17T16:07:08.516Z,22.90
2022-08-17T16:09:37.890Z,22.90
2022-08-17T16:12:16.905Z,22.90
2022-08-17T16:14:49.438Z,22.90
2022-08-17T16:20:06.723Z,23.00
2022-08-17T16:22:45.133Z,22.90
2022-08-17T16:25:53.026Z,22.80
2022-08-17T16:28:23.538Z,22.80
2022-08-17T16:31:05.843Z,22.50
2022-08-17T16:33:39.406Z,22.40
2022-08-17T16:38:36.473Z,22.10
2022-08-17T16:41:05.796Z,22.00
2022-08-17T16:43:34.731Z,22.00
2022-08-17T16:46:03.108Z,21.80
2022-08-17T16:48:31.035Z,21.80
2022-08-17T16:56:03.581Z,21.70
2022-08-17T16:58:31.237Z,21.70
2022-08-17T17:01:00.004Z,21.70
2022-08-17T17:03:30.785Z,21.70
2022-08-17T17:06:06.366Z,21.60
2022-08-17T17:08:51.077Z,21.60
2022-08-17T17:11:27.244Z,21.60
2022-08-17T17:14:01.643Z,21.50
2022-08-17T17:17:01.788Z,21.50
2022-08-17T17:19:38.660Z,21.40
2022-08-17T17:22:22.514Z,21.40
2022-08-17T17:25:11.733Z,21.30
2022-08-17T17:28:16.790Z,21.30
2022-08-17T17:31:05.755Z,21.40
2022-08-17T17:34:00.515Z,21.40
2022-08-17T17:36:47.501Z,21.40
2022-08-17T17:39:37.094Z,21.40
2022-08-17T17:42:08.908Z,18.90
2022-08-17T17:44:54.760Z,21.30
2022-08-17T17:50:02.425Z,21.20
2022-08-17T17:52:47.547Z,21.10
2022-08-17T17:55:37.766Z,21.10
2022-08-17T17:58:44.258Z,21.00
2022-08-17T18:01:29.034Z,20.90
2022-08-17T18:04:30.947Z,20.90
2022-08-17T18:07:23.722Z,20.90
2022-08-17T18:10:29.688Z,20.90
2022-08-17T18:13:08.049Z,20.80
2022-08-17T18:15:54.098Z,20.80
2022-08-17T18:18:38.028Z,20.80
2022-08-17T18:21:19.691Z,20.80
2022-08-17T18:23:59.644Z,20.80
2022-08-17T18:29:12.502Z,20.80
2022-08-17T18:31:40.422Z,20.80
2022-08-17T18:37:26.828Z,20.80
2022-08-17T18:39:55.414Z,20.80
2022-08-17T18:42:27.438Z,20.80
2022-08-17T18:44:56.267Z,20.80
2022-08-17T18:47:28.554Z,20.80
2022-08-17T18:50:24.912Z,20.80
2022-08-17T18:52:55.377Z,20.70
2022-08-17T18:55:29.371Z,20.70
2022-08-17T18:58:13.235Z,20.70
2022-08-17T19:00:43.655Z,20.60
2022-08-17T19:03:20.906Z,20.60
2022-08-17T19:06:16.070Z,20.50
2022-08-17T19:08:44.519Z,20.50
2022-08-17T19:11:20.030Z,20.40
2022-08-17T19:14:02.266Z,20.40
2022-08-17T19:16:34.542Z,20.40
2022-08-17T19:19:17.177Z,20.40
2022-08-17T19:21:56.264Z,20.40
2022-08-17T19:24:26.740Z,20.40
2022-08-17T19:27:00.731Z,20.40
2022-08-17T19:30:21.174Z,20.20
2022-08-17T19:32:49.058Z,20.30
2022-08-17T19:35:20.249Z,20.30
2022-08-17T19:37:54.301Z,20.30
2022-08-17T19:43:48.228Z,20.30
2022-08-17T19:46:48.803Z,20.30
2022-08-17T19:49:33.253Z,20.30
2022-08-17T19:52:52.809Z,20.20
2022-08-17T19:55:43.967Z,20.20
2022-08-17T19:58:24.375Z,20.20
2022-08-17T20:00:54.462Z,20.20
2022-08-17T20:03:45.378Z,20.20
2022-08-17T20:06:14.274Z,20.10
2022-08-17T20:09:04.034Z,20.10
2022-08-17T20:11:43.610Z,20.10
2022-08-17T20:14:20.578Z,20.10
2022-08-17T20:19:35.164Z,20.00
2022-08-17T20:24:40.343Z,19.90
2022-08-17T20:27:31.576Z,19.80
2022-08-17T20:30:13.551Z,19.80
2022-08-17T20:32:55.869Z,19.70
2022-08-17T20:35:33.458Z,19.60
2022-08-17T20:41:01.416Z,19.70
2022-08-17T20:46:23.898Z,19.60
2022-08-17T20:48:57.230Z,19.50
2022-08-17T20:51:31.590Z,19.40
2022-08-17T20:54:08.352Z,19.40
2022-08-17T20:59:28.766Z,19.40
2022-08-17T21:02:08.943Z,19.50
2022-08-17T21:04:54.614Z,19.50
2022-08-17T21:07:24.102Z,19.50
2022-08-17T21:09:52.420Z,19.50
2022-08-17T21:12:42.047Z,19.60
2022-08-17T21:15:23.259Z,19.60
2022-08-17T21:18:06.860Z,19.60
2022-08-17T21:21:02.505Z,19.60
2022-08-17T21:24:02.285Z,19.50
2022-08-17T21:26:50.781Z,19.60
2022-08-17T21:29:32.399Z,19.60
2022-08-17T21:32:05.248Z,19.60
2022-08-17T21:34:36.455Z,19.60
2022-08-17T21:37:23.278Z,19.60
2022-08-17T21:40:11.462Z,19.60
2022-08-17T21:42:47.867Z,19.60
2022-08-17T21:45:25.386Z,19.60
2022-08-17T21:48:24.112Z,19.60
2022-08-17T21:51:03.814Z,19.60
2022-08-17T21:53:45.560Z,19.60
2022-08-17T21:56:40.699Z,19.50
2022-08-17T21:59:24.453Z,19.50
2022-08-17T22:02:01.250Z,19.40
2022-08-17T22:04:33.421Z,19.40
2022-08-17T22:07:04.482Z,19.40
2022-08-17T22:09:43.384Z,19.30
2022-08-17T22:12:26.618Z,19.30
2022-08-17T22:15:06.002Z,19.30
2022-08-17T22:17:45.065Z,19.30
2022-08-17T22:20:21.279Z,19.30
2022-08-17T22:23:07.557Z,19.20
2022-08-17T22:25:41.873Z,19.20
2022-08-17T22:28:12.242Z,19.20
2022-08-17T22:30:59.371Z,19.20
2022-08-17T22:33:43.148Z,19.20
2022-08-17T22:36:34.155Z,21.90
2022-08-17T22:39:10.956Z,19.20
2022-08-17T22:41:41.445Z,19.10
2022-08-17T22:44:24.524Z,19.10
2022-08-17T22:46:55.679Z,19.20
2022-08-17T22:49:38.758Z,19.20
2022-08-17T22:52:56.620Z,19.20
2022-08-17T22:55:44.340Z,19.20
2022-08-17T22:58:38.122Z,19.20
2022-08-17T23:01:26.368Z,19.20
2022-08-17T23:04:07.702Z,19.20
2022-08-17T23:06:37.597Z,19.20
2022-08-17T23:09:07.184Z,19.20
2022-08-17T23:11:49.143Z,19.20
2022-08-17T23:14:20.613Z,19.20
2022-08-17T23:16:51.149Z,19.20
2022-08-17T23:19:22.018Z,19.20
2022-08-17T23:24:27.702Z,19.20
2022-08-17T23:26:57.363Z,19.20
2022-08-17T23:32:00.099Z,19.20
2022-08-17T23:34:28.866Z,19.20
2022-08-17T23:36:57.389Z,19.20
2022-08-17T23:39:28.076Z,19.20
2022-08-17T23:41:58.435Z,19.20
2022-08-17T23:44:27.546Z,19.20
2022-08-17T23:46:55.389Z,19.20
2022-08-17T23:49:25.706Z,19.30
2022-08-17T23:51:56.831Z,19.20
2022-08-17T23:54:29.346Z,19.30
2022-08-17T23:56:56.927Z,20.00
2022-08-17T23:59:24.667Z,19.30
